Terminal Aerodrome Forecast
Issued by NWS

Home | Current Version | Previous Version | Text Only | Print | Product List | Glossary On
Versions: 1 2 3 4 5 6 7 8 9 10 11 12 13 14 15 16
000
FTAK31 PAJN 020600 AAA
TAFAWG
TAF AMD
PAWG 020635Z 0207/0306 12010KT P6SM -RA SCT035 BKN040 OVC050
     FM020800 13010KT P6SM -RA SCT025 OVC040 WS020/14030KT
     FM021400 12010G20KT 6SM -RA BR SCT025 OVC040
     FM021800 11017G27KT 5SM -RA BR BKN025 OVC040
     FM022200 13010KT 5SM -RA BKN025 OVC040
     FM030300 12004KT P6SM -RA BKN030 OVC050
      AMD LTD TO CLD VIS AND WIND TIL 021500=

USA.gov is the U.S. government's official web portal to all federal, state and local government web resources and services.